createdAt,value
2019-02-07T00:00:53.076Z,97591.00
2019-02-07T00:03:22.480Z,97587.00
2019-02-07T00:05:51.846Z,97583.00
2019-02-07T00:08:21.471Z,97587.00
2019-02-07T00:10:50.860Z,97567.00
2019-02-07T00:13:20.309Z,97569.00
2019-02-07T00:15:49.744Z,97586.00
2019-02-07T00:18:19.086Z,97568.00
2019-02-07T00:20:48.517Z,97563.00
2019-02-07T00:23:18.993Z,97547.00
2019-02-07T00:25:48.467Z,97547.00
2019-02-07T00:28:17.813Z,97534.00
2019-02-07T00:30:47.241Z,97532.00
2019-02-07T00:33:16.679Z,97532.00
2019-02-07T00:35:46.061Z,97521.00
2019-02-07T00:38:15.781Z,97514.00
2019-02-07T00:40:45.302Z,97505.00
2019-02-07T00:43:14.647Z,97501.00
2019-02-07T00:45:44.082Z,97492.00
2019-02-07T00:48:13.859Z,97490.00
2019-02-07T00:50:43.229Z,97496.00
2019-02-07T00:53:12.578Z,97489.00
2019-02-07T00:55:41.945Z,97480.00
2019-02-07T00:58:11.321Z,97477.00
2019-02-07T01:00:40.732Z,97468.00
2019-02-07T01:03:11.241Z,97467.00
2019-02-07T01:06:00.314Z,97475.00
2019-02-07T01:08:32.057Z,97464.00
2019-02-07T01:11:01.413Z,97458.00
2019-02-07T01:13:30.867Z,97439.00
2019-02-07T01:16:00.628Z,97451.00
2019-02-07T01:18:30.003Z,97442.00
2019-02-07T01:20:59.359Z,97426.00
2019-02-07T01:23:28.834Z,97432.00
2019-02-07T01:25:58.292Z,97419.00
2019-02-07T01:28:27.661Z,97410.00
2019-02-07T01:30:57.143Z,97412.00
2019-02-07T01:33:26.516Z,97414.00
2019-02-07T01:35:55.877Z,97403.00
2019-02-07T01:38:27.219Z,97413.00
2019-02-07T01:40:57.366Z,97410.00
2019-02-07T01:43:26.791Z,97410.00
2019-02-07T01:45:56.445Z,97404.00
2019-02-07T01:48:25.881Z,97369.00
2019-02-07T01:50:55.259Z,97378.00
2019-02-07T01:53:25.211Z,97392.00
2019-02-07T02:14:34.361Z,97379.00
2019-02-07T02:17:03.797Z,97386.00
2019-02-07T02:19:33.172Z,97389.00
2019-02-07T02:22:02.574Z,97373.00
2019-02-07T02:24:32.006Z,97337.00
2019-02-07T02:27:01.401Z,97330.00
2019-02-07T02:29:30.809Z,97317.00
2019-02-07T02:32:00.487Z,97333.00
2019-02-07T02:34:29.847Z,97349.00
2019-02-07T02:36:59.345Z,97342.00
2019-02-07T02:39:28.718Z,97312.00
2019-02-07T02:41:58.136Z,97310.00
2019-02-07T02:44:29.297Z,97324.00
2019-02-07T02:46:58.658Z,97312.00
2019-02-07T02:49:28.011Z,97308.00
2019-02-07T02:51:57.406Z,97301.00
2019-02-07T02:54:33.884Z,97295.00
2019-02-07T02:57:03.725Z,97286.00
2019-02-07T02:59:33.808Z,97294.00
2019-02-07T03:02:04.939Z,97292.00
2019-02-07T03:04:41.461Z,97286.00
2019-02-07T03:07:18.845Z,97290.00
2019-02-07T03:09:56.152Z,97282.00
2019-02-07T03:12:27.138Z,97275.00
2019-02-07T03:15:15.126Z,97277.00
2019-02-07T03:17:46.129Z,97277.00
2019-02-07T03:20:26.631Z,97282.00
2019-02-07T03:23:03.073Z,97279.00
2019-02-07T03:25:36.643Z,97281.00
2019-02-07T03:28:13.297Z,97284.00
2019-02-07T03:30:53.979Z,97276.00
2019-02-07T03:33:25.118Z,97260.00
2019-02-07T03:35:56.125Z,97245.00
2019-02-07T03:38:42.154Z,97247.00
2019-02-07T03:41:25.342Z,97223.00
2019-02-07T03:44:02.306Z,97223.00
2019-02-07T03:46:45.560Z,97217.00
2019-02-07T03:49:22.442Z,97205.00
2019-02-07T03:52:05.761Z,97209.00
2019-02-07T03:54:37.352Z,97201.00
2019-02-07T03:57:08.365Z,97188.00
2019-02-07T03:59:39.431Z,97179.00
2019-02-07T04:02:22.516Z,97169.00
2019-02-07T04:04:56.768Z,97180.00
2019-02-07T04:07:30.891Z,97183.00
2019-02-07T04:10:14.213Z,97178.00
2019-02-07T04:12:45.327Z,97184.00
2019-02-07T04:15:23.282Z,97193.00
2019-02-07T04:17:57.258Z,97194.00
2019-02-07T04:20:43.635Z,97199.00
2019-02-07T04:23:18.376Z,97193.00
2019-02-07T04:25:55.260Z,97183.00
2019-02-07T04:28:28.801Z,97171.00
2019-02-07T04:31:02.651Z,97154.00
2019-02-07T04:33:39.837Z,97150.00
2019-02-07T04:36:19.815Z,97170.00
2019-02-07T04:38:59.737Z,97147.00
2019-02-07T04:41:39.882Z,97155.00
2019-02-07T04:44:10.912Z,97143.00
2019-02-07T04:46:59.711Z,97135.00
2019-02-07T04:49:33.617Z,97136.00
2019-02-07T04:52:04.658Z,97133.00
2019-02-07T04:54:48.394Z,97120.00
2019-02-07T04:57:22.453Z,97116.00
2019-02-07T04:59:53.446Z,97121.00
2019-02-07T05:02:24.534Z,97111.00
2019-02-07T05:05:04.008Z,97112.00
2019-02-07T05:07:40.725Z,97096.00
2019-02-07T05:10:23.474Z,97108.00
2019-02-07T05:12:57.920Z,97107.00
2019-02-07T05:15:35.361Z,97099.00
2019-02-07T05:18:06.679Z,97095.00
2019-02-07T05:20:40.749Z,97084.00
2019-02-07T05:23:20.901Z,97082.00
2019-02-07T05:25:54.660Z,97074.00
2019-02-07T05:28:42.144Z,97071.00
2019-02-07T05:31:13.157Z,97090.00
2019-02-07T05:33:46.948Z,97070.00
2019-02-07T05:36:23.865Z,97069.00
2019-02-07T05:39:09.711Z,97070.00
2019-02-07T05:41:40.847Z,97057.00
2019-02-07T05:44:15.328Z,97063.00
2019-02-07T05:46:58.986Z,97063.00
2019-02-07T05:49:45.458Z,97055.00
2019-02-07T05:52:19.072Z,97035.00
2019-02-07T05:55:08.461Z,97043.00
2019-02-07T05:57:42.181Z,97063.00
2019-02-07T06:00:17.395Z,97054.00
2019-02-07T06:02:51.917Z,97042.00
2019-02-07T06:05:22.912Z,97047.00
2019-02-07T06:08:02.858Z,97041.00
2019-02-07T06:10:51.862Z,97028.00
2019-02-07T06:13:34.614Z,97037.00
2019-02-07T06:16:20.779Z,97025.00
2019-02-07T06:18:53.179Z,97024.00
2019-02-07T06:21:27.132Z,97030.00
2019-02-07T06:24:13.210Z,97020.00
2019-02-07T06:26:50.282Z,96997.00
2019-02-07T06:29:24.263Z,97000.00
2019-02-07T06:31:55.552Z,97013.00
2019-02-07T06:34:36.445Z,97015.00
2019-02-07T06:37:17.118Z,97002.00
2019-02-07T06:39:48.133Z,96997.00
2019-02-07T06:42:21.862Z,96998.00
2019-02-07T06:44:52.871Z,96989.00
2019-02-07T06:47:36.408Z,96989.00
2019-02-07T06:50:12.462Z,96976.00
2019-02-07T06:52:44.123Z,96977.00
2019-02-07T06:55:33.592Z,96976.00
2019-02-07T06:58:13.731Z,96958.00
2019-02-07T07:00:47.893Z,96973.00
2019-02-07T07:03:18.927Z,96959.00
2019-02-07T07:05:55.716Z,96959.00
2019-02-07T07:08:42.438Z,96951.00
2019-02-07T07:11:13.437Z,96966.00
2019-02-07T07:13:45.104Z,96965.00
2019-02-07T07:16:30.910Z,96954.00
2019-02-07T07:19:10.665Z,96963.00
2019-02-07T07:21:42.517Z,96960.00
2019-02-07T07:24:13.538Z,96955.00
2019-02-07T07:26:44.530Z,96943.00
2019-02-07T07:29:21.817Z,96960.00
2019-02-07T07:32:09.194Z,96932.00
2019-02-07T07:34:56.668Z,96954.00
2019-02-07T07:37:39.863Z,96946.00
2019-02-07T07:40:14.453Z,96938.00
2019-02-07T07:43:01.295Z,96947.00
2019-02-07T07:45:32.770Z,96939.00
2019-02-07T07:48:09.555Z,96949.00
2019-02-07T07:50:52.853Z,96942.00
2019-02-07T07:53:39.947Z,96954.00
2019-02-07T07:56:26.325Z,96949.00
2019-02-07T07:59:13.389Z,96928.00
2019-02-07T08:01:47.523Z,96947.00
2019-02-07T08:04:21.575Z,96934.00
2019-02-07T08:07:08.738Z,96936.00
2019-02-07T08:09:42.425Z,96933.00
2019-02-07T08:12:13.441Z,96935.00
2019-02-07T08:14:53.335Z,96957.00
2019-02-07T08:17:33.146Z,96945.00
2019-02-07T08:20:22.756Z,96939.00
2019-02-07T08:22:57.610Z,96935.00
2019-02-07T08:25:34.290Z,96932.00
2019-02-07T08:28:08.266Z,96931.00
2019-02-07T08:30:57.454Z,96918.00
2019-02-07T08:33:28.732Z,96924.00
2019-02-07T08:36:02.311Z,96923.00
2019-02-07T08:38:35.795Z,96926.00
2019-02-07T08:41:06.935Z,96932.00
2019-02-07T08:43:56.169Z,96922.00
2019-02-07T08:46:33.388Z,96941.00
2019-02-07T08:49:04.434Z,96949.00
2019-02-07T08:51:38.364Z,96936.00
2019-02-07T08:54:29.019Z,96937.00
2019-02-07T08:57:15.754Z,96929.00
2019-02-07T08:59:57.100Z,96940.00
2019-02-07T09:02:51.589Z,96948.00
2019-02-07T09:05:15.895Z,96931.00
2019-02-07T09:08:03.028Z,96926.00
2019-02-07T09:10:38.856Z,96917.00
2019-02-07T09:13:12.898Z,96924.00
2019-02-07T09:15:53.220Z,96924.00
2019-02-07T09:18:24.226Z,96913.00
2019-02-07T09:21:10.212Z,96924.00
2019-02-07T09:23:47.528Z,96912.00
2019-02-07T09:26:33.812Z,96939.00
2019-02-07T09:29:21.310Z,96936.00
2019-02-07T09:32:07.815Z,96920.00
2019-02-07T09:34:47.720Z,96943.00
2019-02-07T09:37:30.538Z,96923.00
2019-02-07T09:40:19.539Z,96941.00
2019-02-07T09:42:54.178Z,96958.00
2019-02-07T09:45:25.510Z,96943.00
2019-02-07T09:48:05.215Z,96958.00
2019-02-07T09:50:36.205Z,96946.00
2019-02-07T09:53:10.178Z,96947.00
2019-02-07T09:55:41.214Z,96941.00
2019-02-07T09:58:24.454Z,96948.00
2019-02-07T10:00:56.120Z,96956.00
2019-02-07T10:03:29.904Z,96975.00
2019-02-07T10:06:13.129Z,96973.00
2019-02-07T10:08:44.213Z,96964.00
2019-02-07T10:11:15.222Z,96973.00
2019-02-07T10:13:52.325Z,96967.00
2019-02-07T10:16:23.335Z,96971.00
2019-02-07T10:19:07.024Z,96969.00
2019-02-07T10:21:41.001Z,96964.00
2019-02-07T10:24:15.819Z,96966.00
2019-02-07T10:26:46.822Z,96958.00
2019-02-07T10:29:21.192Z,96971.00
2019-02-07T10:32:10.228Z,96971.00
2019-02-07T10:34:52.989Z,96970.00
2019-02-07T10:37:36.980Z,96961.00
2019-02-07T10:40:18.252Z,96955.00
2019-02-07T10:42:55.362Z,96958.00
2019-02-07T10:45:43.004Z,96978.00
2019-02-07T10:48:20.063Z,96963.00
2019-02-07T10:50:53.920Z,96968.00
2019-02-07T10:53:28.238Z,96965.00
2019-02-07T10:55:59.348Z,96953.00
2019-02-07T10:58:45.659Z,96962.00
2019-02-07T11:01:19.812Z,96949.00
2019-02-07T11:03:50.993Z,96945.00
2019-02-07T11:06:37.133Z,96943.00
2019-02-07T11:09:15.763Z,96939.00
2019-02-07T11:11:47.176Z,96953.00
2019-02-07T11:14:23.749Z,96944.00
2019-02-07T11:17:10.026Z,96934.00
2019-02-07T11:19:41.024Z,96932.00
2019-02-07T11:22:12.428Z,96945.00
2019-02-07T11:25:01.184Z,96937.00
2019-02-07T11:27:35.565Z,96925.00
2019-02-07T11:30:28.448Z,96930.00
2019-02-07T11:33:02.173Z,96936.00
2019-02-07T11:35:49.116Z,96929.00
2019-02-07T11:38:36.506Z,96927.00
2019-02-07T11:41:11.342Z,96923.00
2019-02-07T11:43:48.350Z,96916.00
2019-02-07T11:46:37.510Z,96923.00
2019-02-07T11:49:13.160Z,96941.00
2019-02-07T11:52:01.312Z,96936.00
2019-02-07T11:54:48.692Z,96936.00
2019-02-07T11:57:36.222Z,96942.00
2019-02-07T12:00:28.748Z,96940.00
2019-02-07T12:03:05.573Z,96944.00
2019-02-07T12:05:42.909Z,96931.00
2019-02-07T12:08:31.458Z,96928.00
2019-02-07T12:11:18.617Z,96925.00
2019-02-07T12:13:52.732Z,96933.00
2019-02-07T12:16:23.777Z,96928.00
2019-02-07T12:18:54.793Z,96928.00
2019-02-07T12:21:28.588Z,96928.00
2019-02-07T12:24:15.128Z,96932.00
2019-02-07T12:26:52.720Z,96928.00
2019-02-07T12:29:24.096Z,96928.00
2019-02-07T12:31:55.101Z,96918.00
2019-02-07T12:34:29.427Z,96919.00
2019-02-07T12:37:03.511Z,96925.00
2019-02-07T12:39:50.711Z,96926.00
2019-02-07T12:42:38.499Z,96920.00
2019-02-07T12:45:11.827Z,96918.00
2019-02-07T12:47:42.796Z,96916.00
2019-02-07T12:50:23.946Z,96916.00
2019-02-07T12:53:07.201Z,96904.00
2019-02-07T12:55:51.995Z,96904.00
2019-02-07T12:58:17.916Z,96920.00
2019-02-07T13:00:51.922Z,96915.00
2019-02-07T13:03:42.699Z,96902.00
2019-02-07T13:06:33.173Z,96920.00
2019-02-07T13:09:04.194Z,96901.00
2019-02-07T13:11:37.671Z,96894.00
2019-02-07T13:14:08.906Z,96900.00
2019-02-07T13:16:46.456Z,96900.00
2019-02-07T13:19:17.630Z,96917.00
2019-02-07T13:21:51.280Z,96916.00
2019-02-07T13:24:31.401Z,96903.00
2019-02-07T13:27:15.585Z,96903.00
2019-02-07T13:29:49.702Z,96900.00
2019-02-07T13:32:32.780Z,96903.00
2019-02-07T13:35:21.937Z,96903.00
2019-02-07T13:37:53.112Z,96902.00
2019-02-07T13:40:24.151Z,96893.00
2019-02-07T13:42:55.531Z,96913.00
2019-02-07T13:45:27.320Z,96904.00
2019-02-07T13:48:04.533Z,96919.00
2019-02-07T13:50:44.854Z,96915.00
2019-02-07T13:53:32.069Z,96899.00
2019-02-07T13:56:05.839Z,96898.00
2019-02-07T13:58:53.708Z,96890.00
2019-02-07T14:01:30.755Z,96896.00
2019-02-07T14:04:01.810Z,96896.00
2019-02-07T14:06:32.823Z,96894.00
2019-02-07T14:09:20.009Z,96902.00
2019-02-07T14:11:59.876Z,96903.00
2019-02-07T14:14:43.374Z,96904.00
2019-02-07T14:17:14.457Z,96905.00
2019-02-07T14:20:03.395Z,96907.00
2019-02-07T14:22:32.648Z,96921.00
2019-02-07T14:25:06.523Z,96901.00
2019-02-07T14:27:37.972Z,96913.00
2019-02-07T14:30:17.372Z,96905.00
2019-02-07T14:32:48.370Z,96915.00
2019-02-07T14:35:28.350Z,96923.00
2019-02-07T14:38:05.297Z,96913.00
2019-02-07T14:40:36.342Z,96913.00
2019-02-07T14:43:07.793Z,96917.00
2019-02-07T14:45:38.817Z,96932.00
2019-02-07T14:48:10.331Z,96930.00
2019-02-07T14:50:39.719Z,96933.00
2019-02-07T14:53:09.114Z,96936.00
2019-02-07T14:55:38.529Z,96944.00
2019-02-07T14:58:07.889Z,96935.00
2019-02-07T15:00:37.408Z,96924.00
2019-02-07T15:03:07.406Z,96928.00
2019-02-07T15:05:36.777Z,96916.00
2019-02-07T15:08:06.457Z,96941.00
2019-02-07T15:10:36.534Z,96933.00
2019-02-07T15:13:05.976Z,96932.00
2019-02-07T15:15:35.367Z,96952.00
2019-02-07T15:18:05.491Z,96934.00
2019-02-07T15:20:34.867Z,96937.00
2019-02-07T15:23:04.600Z,96940.00
2019-02-07T15:25:33.978Z,96938.00
2019-02-07T15:28:03.498Z,96947.00
2019-02-07T15:30:34.329Z,96941.00
2019-02-07T15:33:05.961Z,96952.00
2019-02-07T15:35:40.057Z,96950.00
2019-02-07T15:38:09.628Z,96940.00
2019-02-07T15:40:39.029Z,96947.00
2019-02-07T15:43:08.602Z,96959.00
2019-02-07T15:45:38.481Z,96973.00
2019-02-07T15:48:07.972Z,96962.00
2019-02-07T15:50:39.551Z,96969.00
2019-02-07T15:53:09.802Z,96971.00
2019-02-07T15:55:39.192Z,96968.00
2019-02-07T15:58:08.721Z,96972.00
2019-02-07T16:00:48.821Z,96973.00
2019-02-07T16:03:29.266Z,96957.00
2019-02-07T16:05:58.940Z,96974.00
2019-02-07T16:08:28.304Z,96969.00
2019-02-07T16:10:57.671Z,96974.00
2019-02-07T16:13:27.107Z,96977.00
2019-02-07T16:15:56.553Z,96985.00
2019-02-07T16:18:25.924Z,96980.00
2019-02-07T16:20:55.300Z,96979.00
2019-02-07T16:23:24.741Z,96993.00
2019-02-07T16:25:54.128Z,96992.00
2019-02-07T16:28:23.773Z,96992.00
2019-02-07T16:30:53.148Z,96989.00
2019-02-07T16:33:23.211Z,97007.00
2019-02-07T16:35:52.691Z,96985.00
2019-02-07T16:38:22.060Z,97002.00
2019-02-07T16:40:52.532Z,97007.00
2019-02-07T16:43:22.190Z,97018.00
2019-02-07T16:45:51.563Z,97010.00
2019-02-07T16:48:20.946Z,97006.00
2019-02-07T16:50:59.973Z,97020.00
2019-02-07T16:53:22.102Z,97013.00
2019-02-07T16:55:51.471Z,97005.00
2019-02-07T16:58:21.238Z,97014.00
2019-02-07T17:00:50.622Z,97014.00
2019-02-07T17:03:20.017Z,97017.00
2019-02-07T17:05:49.681Z,97004.00
2019-02-07T17:08:19.139Z,97015.00
2019-02-07T17:10:48.526Z,97003.00
2019-02-07T17:13:18.539Z,97027.00
2019-02-07T17:15:47.985Z,97016.00
2019-02-07T17:18:17.365Z,97020.00
2019-02-07T17:20:46.897Z,97013.00
2019-02-07T17:23:16.252Z,97018.00
2019-02-07T17:25:45.847Z,97027.00
2019-02-07T17:28:15.418Z,97021.00
2019-02-07T17:30:44.850Z,97018.00
2019-02-07T17:33:14.206Z,97031.00
2019-02-07T17:35:44.406Z,97038.00
2019-02-07T17:38:13.820Z,97030.00
2019-02-07T17:40:43.310Z,97028.00
2019-02-07T17:43:13.030Z,97032.00
2019-02-07T17:45:42.426Z,97042.00
2019-02-07T17:48:11.863Z,97035.00
2019-02-07T17:50:41.980Z,97026.00
2019-02-07T17:53:13.463Z,97028.00
2019-02-07T17:55:43.008Z,97039.00
2019-02-07T17:58:12.864Z,97031.00
2019-02-07T18:00:50.962Z,97043.00
2019-02-07T18:03:20.393Z,97047.00
2019-02-07T18:05:49.848Z,97058.00
2019-02-07T18:08:19.510Z,97090.00
2019-02-07T18:10:49.607Z,97092.00
2019-02-07T18:13:19.053Z,97083.00
2019-02-07T18:15:48.455Z,97102.00
2019-02-07T18:18:18.630Z,97102.00
2019-02-07T18:20:48.042Z,97077.00
2019-02-07T18:23:17.496Z,97093.00
2019-02-07T18:25:47.906Z,97108.00
2019-02-07T18:28:17.462Z,97098.00
2019-02-07T18:30:46.886Z,97093.00
2019-02-07T18:33:16.261Z,97100.00
2019-02-07T18:35:46.206Z,97090.00
2019-02-07T18:38:15.590Z,97099.00
2019-02-07T18:40:45.347Z,97121.00
2019-02-07T18:43:14.704Z,97106.00
2019-02-07T18:45:44.062Z,97110.00
2019-02-07T18:48:13.449Z,97132.00
2019-02-07T18:50:42.948Z,97120.00
2019-02-07T18:53:12.317Z,97119.00
2019-02-07T18:55:41.987Z,97131.00
2019-02-07T18:58:11.374Z,97126.00
2019-02-07T19:00:41.406Z,97138.00
2019-02-07T19:03:11.144Z,97132.00
2019-02-07T19:05:40.498Z,97138.00
2019-02-07T19:08:10.118Z,97136.00
2019-02-07T19:10:40.887Z,97141.00
2019-02-07T19:13:10.247Z,97149.00
2019-02-07T19:15:43.968Z,97151.00
2019-02-07T19:18:13.415Z,97154.00
2019-02-07T19:20:42.866Z,97144.00
2019-02-07T19:23:12.429Z,97143.00
2019-02-07T19:25:42.014Z,97142.00
2019-02-07T19:28:11.514Z,97144.00
2019-02-07T19:30:40.974Z,97149.00
2019-02-07T19:33:10.333Z,97160.00
2019-02-07T19:35:40.263Z,97155.00
2019-02-07T19:38:10.730Z,97144.00
2019-02-07T19:40:40.407Z,97148.00
2019-02-07T19:43:09.783Z,97159.00
2019-02-07T19:45:39.137Z,97155.00
2019-02-07T19:48:09.157Z,97156.00
2019-02-07T19:50:38.518Z,97159.00
2019-02-07T19:53:07.900Z,97160.00
2019-02-07T19:55:37.643Z,97152.00
2019-02-07T19:58:07.207Z,97167.00
2019-02-07T20:00:39.370Z,97169.00
2019-02-07T20:03:08.035Z,97172.00
2019-02-07T20:05:37.534Z,97175.00
2019-02-07T20:08:07.140Z,97178.00
2019-02-07T20:10:36.912Z,97180.00
2019-02-07T20:13:06.637Z,97175.00
2019-02-07T20:15:40.116Z,97189.00
2019-02-07T20:18:11.672Z,97190.00
2019-02-07T20:20:41.652Z,97182.00
2019-02-07T20:23:11.075Z,97191.00
2019-02-07T20:25:40.841Z,97183.00
2019-02-07T20:28:10.301Z,97185.00
2019-02-07T20:30:43.294Z,97193.00
2019-02-07T20:33:13.220Z,97195.00
2019-02-07T20:35:42.665Z,97201.00
2019-02-07T20:38:12.159Z,97203.00
2019-02-07T20:40:43.486Z,97202.00
2019-02-07T20:43:12.851Z,97207.00
2019-02-07T20:45:42.211Z,97206.00
2019-02-07T20:48:11.579Z,97208.00
2019-02-07T20:50:40.946Z,97213.00
2019-02-07T20:53:10.572Z,97214.00
2019-02-07T20:55:40.044Z,97208.00
2019-02-07T20:58:10.258Z,97219.00
2019-02-07T21:00:40.376Z,97217.00
2019-02-07T21:03:09.823Z,97208.00
2019-02-07T21:05:39.270Z,97224.00
2019-02-07T21:08:08.767Z,97206.00
2019-02-07T21:10:40.177Z,97224.00
2019-02-07T21:13:09.990Z,97207.00
2019-02-07T21:15:39.356Z,97216.00
2019-02-07T21:18:10.137Z,97223.00
2019-02-07T21:20:39.518Z,97227.00
2019-02-07T21:23:09.018Z,97218.00
2019-02-07T21:25:43.273Z,97223.00
2019-02-07T21:28:12.941Z,97239.00
2019-02-07T21:30:42.322Z,97236.00
2019-02-07T21:33:11.734Z,97235.00
2019-02-07T21:35:41.110Z,97247.00
2019-02-07T21:38:10.703Z,97255.00
2019-02-07T21:40:40.117Z,97245.00
2019-02-07T21:43:10.167Z,97257.00
2019-02-07T21:45:39.553Z,97256.00
2019-02-07T21:48:09.676Z,97273.00
2019-02-07T21:50:39.202Z,97261.00
2019-02-07T21:53:08.552Z,97258.00
2019-02-07T21:55:38.809Z,97259.00
2019-02-07T21:58:10.205Z,97259.00
2019-02-07T22:00:46.130Z,97269.00
2019-02-07T22:03:34.848Z,97271.00
2019-02-07T22:06:04.367Z,97265.00
2019-02-07T22:08:34.114Z,97265.00
2019-02-07T22:11:03.484Z,97267.00
2019-02-07T22:13:32.911Z,97275.00
2019-02-07T22:16:02.443Z,97287.00
2019-02-07T22:18:33.203Z,97283.00
2019-02-07T22:21:02.582Z,97288.00
2019-02-07T22:23:32.241Z,97282.00
2019-02-07T22:26:01.928Z,97282.00
2019-02-07T22:28:31.384Z,97287.00
2019-02-07T22:31:02.515Z,97285.00
2019-02-07T22:33:31.866Z,97272.00
2019-02-07T22:36:01.257Z,97278.00
2019-02-07T22:38:30.881Z,97282.00
2019-02-07T22:41:00.245Z,97276.00
2019-02-07T22:43:31.613Z,97284.00
2019-02-07T22:46:01.966Z,97282.00
2019-02-07T22:48:31.307Z,97299.00
2019-02-07T22:51:00.760Z,97292.00
2019-02-07T22:53:30.506Z,97298.00
2019-02-07T22:55:59.866Z,97295.00
2019-02-07T22:58:29.233Z,97302.00
2019-02-07T23:01:03.218Z,97306.00
2019-02-07T23:03:32.658Z,97306.00
2019-02-07T23:06:08.191Z,97297.00
2019-02-07T23:08:37.562Z,97306.00
2019-02-07T23:11:08.834Z,97301.00
2019-02-07T23:13:38.254Z,97305.00
2019-02-07T23:16:09.763Z,97297.00
2019-02-07T23:18:39.575Z,97311.00
2019-02-07T23:21:09.576Z,97321.00
2019-02-07T23:23:38.927Z,97319.00
2019-02-07T23:26:08.534Z,97323.00
2019-02-07T23:28:37.877Z,97316.00
2019-02-07T23:31:08.046Z,97309.00
2019-02-07T23:33:39.645Z,97310.00
2019-02-07T23:36:09.309Z,97317.00
2019-02-07T23:38:38.902Z,97309.00
2019-02-07T23:41:14.723Z,97322.00
2019-02-07T23:43:46.174Z,97324.00
2019-02-07T23:46:15.387Z,97333.00
2019-02-07T23:48:45.532Z,97324.00
2019-02-07T23:51:15.009Z,97327.00
2019-02-07T23:53:44.469Z,97323.00
2019-02-07T23:56:21.013Z,97325.00
2019-02-07T23:58:50.378Z,97327.00
